Roald Amundsen — DARG — position and weather

sailwx.info

Track history (hours):
 
Tides and Currents Weather Stations Pressure Air Temp Water Temp Dewpoint Dewpoint Depression Visibility Wind Speed Wind Dir Waves Ship Positions

Roald Amundsen (Germany)

Built as a deep sea lugger in 1952. Converted and rigged as a traditional brig in 1992.

Ship's website: http://www.sailtraining.de/

Last reported at 2019-Apr-24 04:36 UTC. Time now 2019-Apr-25 12:11 UTC.
Position N 54°28' E 009°50'.

Length 50 m; beam 7.4 m; draft 4.5 m.

Type: Sailing vessel. MMSI: 211215170.

Date/timePositionNaut miles runAvg speedWind from/ knotsBaromVisibWave heightAir tempDewpointWater temp
2019-Apr-24 04:36N 54°28' E 009°50'0 0.1
2019-Apr-24 04:30N 54°28' E 009°50'0 0.0
2019-Apr-24 04:00N 54°28' E 009°50'0 0.0
2019-Apr-24 03:30N 54°28' E 009°50'0 0.0
2019-Apr-24 03:00N 54°28' E 009°50'0 0.0
2019-Apr-24 02:30N 54°28' E 009°50'0 0.0
2019-Apr-24 02:00N 54°28' E 009°50'0 0.0
2019-Apr-24 01:30N 54°28' E 009°50'0 0.0
2019-Apr-24 01:00N 54°28' E 009°50'0 0.0
2019-Apr-24 00:30N 54°28' E 009°50'0 0.0
2019-Apr-24 00:00N 54°28' E 009°50'0 0.0
2019-Apr-23 23:30N 54°28' E 009°50'0 0.0
2019-Apr-23 23:00N 54°28' E 009°50'0 0.0
2019-Apr-23 22:30N 54°28' E 009°50'0 0.0
2019-Apr-23 22:00N 54°28' E 009°50'0 0.0
2019-Apr-23 21:30N 54°28' E 009°50'0 0.0
2019-Apr-23 21:00N 54°28' E 009°50'0 0.0
2019-Apr-23 20:30N 54°28' E 009°50'0 0.0
2019-Apr-23 20:00N 54°28' E 009°50'0 0.0
2019-Apr-23 19:30N 54°28' E 009°50'0 0.0
2019-Apr-23 19:01N 54°28' E 009°50'0 0.0
2019-Apr-23 18:31N 54°28' E 009°50'0 0.0
2019-Apr-23 18:01N 54°28' E 009°50'0 0.0
2019-Apr-23 17:30N 54°28' E 009°50'0 0.0
2019-Apr-23 17:01N 54°28' E 009°50'0 0.0
2019-Apr-23 16:30N 54°28' E 009°50'0 0.0
2019-Apr-23 16:00N 54°28' E 009°50'0 0.0
2019-Apr-23 15:30N 54°28' E 009°50'0 0.0
2019-Apr-23 15:00N 54°28' E 009°50'0 0.0
2019-Apr-23 14:30N 54°28' E 009°50'0 0.0
2019-Apr-23 14:00N 54°28' E 009°50'0 0.0
2019-Apr-23 13:31N 54°28' E 009°50'0 0.0
2019-Apr-23 13:01N 54°28' E 009°50'0 0.0
2019-Apr-23 12:30N 54°28' E 009°50'0 0.0
2019-Apr-23 12:00N 54°28' E 009°50'0 0.0
2019-Apr-23 11:30N 54°28' E 009°50'0 0.0
2019-Apr-23 11:00N 54°28' E 009°50'0 0.0
2019-Apr-23 10:30N 54°28' E 009°50'0 0.0
2019-Apr-23 10:00N 54°28' E 009°50'0 0.0
2019-Apr-23 09:30N 54°28' E 009°50'0 0.0
2019-Apr-23 09:00N 54°28' E 009°50'0 0.0
2019-Apr-23 08:30N 54°28' E 009°50'0 0.0
2019-Apr-23 08:00N 54°28' E 009°50'0 0.0
2019-Apr-21 14:46N 54°28' E 009°50'0 0.4
2019-Apr-21 14:30N 54°28' E 009°51'3 6.6
2019-Apr-21 14:01N 54°29' E 009°56'4 7.7
2019-Apr-21 13:31N 54°31' E 010°02'2 4.1
2019-Apr-21 13:01N 54°31' E 010°06'1 2.5
2019-Apr-21 12:31N 54°31' E 010°08'1 2.7
2019-Apr-21 12:01N 54°30' E 010°10'1 2.7
2019-Apr-21 11:30N 54°30' E 010°12'1 2.2
2019-Apr-21 11:01N 54°29' E 010°14'1 1.8
2019-Apr-21 10:30N 54°29' E 010°15'2 4.5
2019-Apr-21 10:00N 54°27' E 010°14'3 5.9
2019-Apr-21 09:30N 54°24' E 010°12'2 4.9
2019-Apr-21 09:00N 54°22' E 010°09'0 0.2
2019-Apr-21 08:25N 54°22' E 010°09'0 0.0
2019-Apr-21 07:58N 54°22' E 010°09'0 0.0
2019-Apr-21 07:28N 54°22' E 010°09'0 0.0
2019-Apr-21 06:58N 54°22' E 010°09'0 0.0
2019-Apr-21 06:28N 54°22' E 010°09'0 0.0
2019-Apr-21 05:58N 54°22' E 010°09'0 0.0
2019-Apr-21 05:28N 54°22' E 010°09'0 0.0
2019-Apr-21 04:58N 54°22' E 010°09'0 0.0
2019-Apr-21 04:28N 54°22' E 010°09'0 0.0
2019-Apr-21 03:58N 54°22' E 010°09'0 0.0
2019-Apr-21 03:28N 54°22' E 010°09'0 0.0
2019-Apr-21 02:58N 54°22' E 010°09'0 0.0
2019-Apr-21 02:28N 54°22' E 010°09'0 0.0
2019-Apr-21 01:58N 54°22' E 010°09'0 0.0
2019-Apr-21 01:28N 54°22' E 010°09'0 0.0
2019-Apr-21 00:49N 54°22' E 010°09'0 0.0
2019-Apr-21 00:19N 54°22' E 010°09'0 0.0
2019-Apr-20 23:49N 54°22' E 010°09'0 0.0
2019-Apr-20 23:25N 54°22' E 010°09'0 0.0
2019-Apr-20 22:52N 54°22' E 010°09'0 0.0
2019-Apr-20 22:25N 54°22' E 010°09'0 0.0
2019-Apr-20 21:58N 54°22' E 010°09'0 0.0
2019-Apr-20 21:22N 54°22' E 010°09'0 0.0
2019-Apr-20 21:00N 54°22' E 010°09'0 0.8
2019-Apr-20 20:30N 54°22' E 010°08'0 0.0
2019-Apr-20 20:00N 54°22' E 010°08'0 1.0
2019-Apr-20 19:30N 54°22' E 010°08'3 6.1
2019-Apr-20 19:00N 54°22' E 010°03'4 7.2
2019-Apr-20 18:30N 54°20' E 009°57'2 3.7
2019-Apr-20 18:00N 54°21' E 009°54'4 7.7
2019-Apr-20 17:30N 54°22' E 009°47'4 7.7
2019-Apr-20 17:00N 54°19' E 009°43'4 7.2
2019-Apr-20 16:30N 54°16' E 009°38'4 7.4
2019-Apr-20 16:00N 54°13' E 009°35'4 7.6
2019-Apr-20 15:30N 54°11' E 009°30'4 7.8
2019-Apr-20 15:00N 54°10' E 009°24'6 7.2
2019-Apr-20 14:10N 54°04' E 009°19'3 7.7
2019-Apr-20 13:46N 54°01' E 009°18'2 7.7
2019-Apr-20 13:30N 53°59' E 009°17'4 7.8
2019-Apr-20 12:58N 53°56' E 009°13'3 6.9
2019-Apr-20 12:29N 53°54' E 009°09'0 0.0
2019-Apr-20 11:46N 53°54' E 009°09'0 1.2
2019-Apr-20 11:30N 53°53' E 009°09'3 3.6
2019-Apr-20 10:45N 53°52' E 009°04'2 8.2
2019-Apr-20 10:30N 53°51' E 009°01'4 8.6
2019-Apr-20 10:00N 53°50' E 008°54'4 7.6
2019-Apr-20 09:27N 53°50' E 008°47'6 6.8
2019-Apr-20 08:33N 53°55' E 008°40'0 6.7
2019-Apr-20 08:30N 53°55' E 008°40'3 6.1
2019-Apr-20 08:00N 53°57' E 008°36'3 5.8
2019-Apr-20 07:30N 53°58' E 008°31'2 4.5
2019-Apr-20 07:00N 53°59' E 008°28'2 3.8
2019-Apr-20 06:30N 53°59' E 008°24'2 3.2
2019-Apr-20 06:00N 53°59' E 008°22'2 3.2
2019-Apr-20 05:30N 53°59' E 008°19'3 5.8
2019-Apr-20 05:00N 53°60' E 008°14'3 6.0
2019-Apr-20 04:30N 53°59' E 008°09'3 5.4
2019-Apr-20 04:00N 53°58' E 008°05'3 5.2
2019-Apr-20 03:30N 53°58' E 008°00'2 4.7
2019-Apr-20 02:59N 53°57' E 007°56'2 4.4
2019-Apr-20 02:30N 53°57' E 007°53'2 4.5
2019-Apr-20 02:00N 53°56' E 007°49'3 5.1
2019-Apr-20 01:29N 53°56' E 007°45'44 6.3
2019-Apr-19 18:26N 53°41' E 006°34'5 3.4
2019-Apr-19 17:05N 53°37' E 006°33'2 7.2
2019-Apr-19 16:49N 53°36' E 006°36'5 8.4
2019-Apr-19 16:10N 53°33' E 006°43'2 9.2
2019-Apr-19 16:00N 53°32' E 006°45'4 8.6
2019-Apr-19 15:30N 53°29' E 006°50'4 8.6
2019-Apr-19 15:00N 53°26' E 006°55'5 9.8
2019-Apr-19 14:30N 53°21' E 006°59'4 7.6
2019-Apr-19 14:00N 53°20' E 007°05'4 7.2
2019-Apr-19 13:28N 53°20' E 007°11'0 0.9
2019-Apr-19 13:00N 53°21' E 007°12'1 1.3
2019-Apr-19 12:29N 53°21' E 007°12'0 0.1
2019-Apr-19 11:59N 53°21' E 007°12'0 0.0
2019-Apr-19 11:29N 53°21' E 007°12'0 0.0
2019-Apr-19 10:59N 53°21' E 007°12'0 0.0
2019-Apr-19 10:29N 53°21' E 007°12'0 0.0
2019-Apr-19 09:59N 53°21' E 007°12'0 0.0
2019-Apr-19 09:29N 53°21' E 007°12'0 0.0
2019-Apr-19 08:59N 53°21' E 007°12'0 0.0
2019-Apr-19 08:29N 53°21' E 007°12'0 0.0
2019-Apr-19 07:59N 53°21' E 007°12'0 0.0
2019-Apr-19 07:29N 53°21' E 007°12'0 0.0
2019-Apr-19 06:59N 53°21' E 007°12'0 0.0
2019-Apr-19 06:29N 53°21' E 007°12'0 0.0
2019-Apr-19 05:59N 53°21' E 007°12'0 0.0
2019-Apr-19 05:29N 53°21' E 007°12'0 0.0
2019-Apr-19 04:59N 53°21' E 007°12'0 0.0
2019-Apr-19 04:29N 53°21' E 007°12'0 0.0
2019-Apr-19 03:59N 53°21' E 007°12'0 0.0
2019-Apr-19 03:29N 53°21' E 007°12'0 0.0
2019-Apr-19 02:59N 53°21' E 007°12'0 0.0
2019-Apr-19 02:29N 53°21' E 007°12'0 0.0
2019-Apr-19 01:59N 53°21' E 007°12'0 0.0
2019-Apr-19 01:29N 53°21' E 007°12'0 0.0
2019-Apr-19 00:59N 53°21' E 007°12'0 0.0
2019-Apr-19 00:29N 53°21' E 007°12'0 0.0
2019-Apr-18 23:59N 53°21' E 007°12'0 0.0
2019-Apr-18 23:29N 53°21' E 007°12'0 0.0
2019-Apr-18 22:59N 53°21' E 007°12'0 0.0
2019-Apr-18 22:29N 53°21' E 007°12'0 0.0
2019-Apr-18 21:59N 53°21' E 007°12'0 0.0
2019-Apr-18 21:29N 53°21' E 007°12'0 0.0
2019-Apr-18 20:59N 53°21' E 007°12'0 0.0
2019-Apr-18 20:29N 53°21' E 007°12'0 0.0
2019-Apr-18 19:59N 53°21' E 007°12'0 0.0
2019-Apr-18 19:29N 53°21' E 007°12'0 0.0
2019-Apr-18 18:59N 53°21' E 007°12'0 0.0
2019-Apr-18 18:29N 53°21' E 007°12'0 0.0
2019-Apr-18 17:59N 53°21' E 007°12'0 0.0
2019-Apr-18 17:29N 53°21' E 007°12'0 0.0
2019-Apr-18 16:59N 53°21' E 007°12'0 0.0
2019-Apr-18 16:29N 53°21' E 007°12'0 0.0
2019-Apr-18 15:59N 53°21' E 007°12'0 0.0
2019-Apr-18 15:29N 53°21' E 007°12'0 0.0
2019-Apr-18 14:59N 53°21' E 007°12'0 0.0
2019-Apr-18 14:29N 53°21' E 007°12'0 0.0
2019-Apr-18 13:59N 53°21' E 007°12'0 0.0
2019-Apr-18 13:29N 53°21' E 007°12'0 0.0
2019-Apr-18 12:59N 53°21' E 007°12'0 0.0
2019-Apr-18 12:29N 53°21' E 007°12'0 0.0
2019-Apr-18 11:59N 53°21' E 007°12'0 0.0
2019-Apr-18 11:29N 53°21' E 007°12'0 0.0
2019-Apr-18 10:59N 53°21' E 007°12'0 0.0
2019-Apr-18 10:29N 53°21' E 007°12'0 0.0
2019-Apr-18 09:59N 53°21' E 007°12'0 0.0
2019-Apr-18 09:29N 53°21' E 007°12'0 0.0
2019-Apr-18 08:59N 53°21' E 007°12'0 0.0
2019-Apr-18 08:29N 53°21' E 007°12'0 0.0
2019-Apr-18 07:59N 53°21' E 007°12'0 0.0
2019-Apr-18 07:29N 53°21' E 007°12'0 0.0
2019-Apr-18 06:59N 53°21' E 007°12'0 0.0
2019-Apr-18 06:29N 53°21' E 007°12'0 0.0
2019-Apr-18 05:59N 53°21' E 007°12'0 0.0
2019-Apr-18 05:29N 53°21' E 007°12'0 0.0
2019-Apr-18 04:59N 53°21' E 007°12'0 0.0
2019-Apr-18 04:29N 53°21' E 007°12'0 0.0
2019-Apr-18 03:59N 53°21' E 007°12'0 0.0
2019-Apr-18 03:29N 53°21' E 007°12'0 0.0
2019-Apr-18 02:59N 53°21' E 007°12'0 0.0
2019-Apr-18 02:29N 53°21' E 007°12'0 0.0
2019-Apr-18 01:59N 53°21' E 007°12'0 0.0
2019-Apr-18 01:29N 53°21' E 007°12'0 0.0
2019-Apr-18 00:59N 53°21' E 007°12'0 0.0
2019-Apr-18 00:29N 53°21' E 007°12'0 0.0
2019-Apr-17 23:59N 53°21' E 007°12'0 0.0
2019-Apr-17 23:29N 53°21' E 007°12'0 0.0
2019-Apr-17 22:59N 53°21' E 007°12'0 0.0
2019-Apr-17 22:29N 53°21' E 007°12'0 0.0
2019-Apr-17 21:59N 53°21' E 007°12'0 0.0
2019-Apr-17 21:29N 53°21' E 007°12'0 0.0
2019-Apr-17 20:59N 53°21' E 007°12'0 0.0
2019-Apr-17 20:29N 53°21' E 007°12'0 0.0
2019-Apr-17 19:59N 53°21' E 007°12'0 0.0
2019-Apr-17 19:29N 53°21' E 007°12'0 0.0
2019-Apr-17 18:59N 53°21' E 007°12'0 0.0
2019-Apr-17 18:29N 53°21' E 007°12'0 0.0
2019-Apr-16 06:53N 53°21' E 007°12'0 0.0
2019-Apr-16 06:30N 53°21' E 007°12'0 0.0
2019-Apr-16 06:00N 53°21' E 007°12'0 0.0
2019-Apr-16 05:30N 53°21' E 007°12'0 0.0
2019-Apr-16 05:00N 53°21' E 007°12'0 0.0
2019-Apr-16 04:30N 53°21' E 007°12'0 0.0
2019-Apr-16 04:00N 53°21' E 007°12'0 0.0
2019-Apr-16 03:30N 53°21' E 007°12'0 0.0
2019-Apr-16 03:00N 53°21' E 007°12'0 0.0
2019-Apr-16 02:30N 53°21' E 007°12'0 0.0
2019-Apr-16 02:00N 53°21' E 007°12'0 0.0
2019-Apr-16 01:30N 53°21' E 007°12'0 0.0
2019-Apr-16 01:00N 53°21' E 007°12'0 0.0
2019-Apr-16 00:30N 53°21' E 007°12'0 0.0
2019-Apr-16 00:00N 53°21' E 007°12'0 0.0
2019-Apr-15 23:30N 53°21' E 007°12'0 0.0
2019-Apr-15 23:00N 53°21' E 007°12'0 0.0
2019-Apr-15 22:30N 53°21' E 007°12'0 0.0
2019-Apr-15 22:00N 53°21' E 007°12'0 0.0
2019-Apr-15 21:30N 53°21' E 007°12'0 0.0
2019-Apr-15 21:00N 53°21' E 007°12'0 0.0
2019-Apr-15 20:30N 53°21' E 007°12'0 0.0
2019-Apr-15 20:00N 53°21' E 007°12'0 0.0
2019-Apr-15 19:30N 53°21' E 007°12'0 0.0
2019-Apr-15 19:00N 53°21' E 007°12'0 0.0
2019-Apr-15 18:30N 53°21' E 007°12'0 0.0
2019-Apr-15 18:00N 53°21' E 007°12'0 0.0
2019-Apr-15 17:30N 53°21' E 007°12'0 0.0
2019-Apr-15 17:00N 53°21' E 007°12'0 0.0
2019-Apr-15 16:30N 53°21' E 007°12'0 0.0
2019-Apr-15 16:00N 53°21' E 007°12'0 0.0
2019-Apr-15 15:30N 53°21' E 007°12'0 0.0
2019-Apr-15 15:00N 53°21' E 007°12'0 0.0
2019-Apr-15 14:30N 53°21' E 007°12'0 0.0
2019-Apr-15 14:00N 53°21' E 007°12'0 0.0
2019-Apr-15 13:30N 53°21' E 007°12'0 0.0
2019-Apr-15 13:00N 53°21' E 007°12'0 0.0
2019-Apr-15 12:30N 53°21' E 007°12'0 0.0
2019-Apr-15 12:00N 53°21' E 007°12'0 0.0
2019-Apr-15 11:30N 53°21' E 007°12'0 0.0
2019-Apr-15 11:00N 53°21' E 007°12'0 0.0
2019-Apr-15 10:30N 53°21' E 007°12'0 0.0
2019-Apr-15 10:00N 53°21' E 007°12'0 0.0
2019-Apr-15 09:30N 53°21' E 007°12'0 0.0
2019-Apr-15 09:00N 53°21' E 007°12'0 0.0
2019-Apr-15 08:30N 53°21' E 007°12'0 0.0
2019-Apr-15 08:00N 53°21' E 007°12'0 0.0
2019-Apr-15 07:30N 53°21' E 007°12'0 0.0
2019-Apr-15 07:00N 53°21' E 007°12'0 0.0
2019-Apr-15 06:30N 53°21' E 007°12'0 0.0
2019-Apr-15 06:00N 53°21' E 007°12'0 0.0
2019-Apr-15 05:30N 53°21' E 007°12'0 0.0
2019-Apr-15 05:00N 53°21' E 007°12'0 0.0
2019-Apr-15 04:30N 53°21' E 007°12'0 0.0
2019-Apr-15 04:00N 53°21' E 007°12'0 0.0
2019-Apr-15 03:30N 53°21' E 007°12'0 0.0
2019-Apr-15 03:00N 53°21' E 007°12'0 0.0
2019-Apr-15 02:30N 53°21' E 007°12'0 0.0
2019-Apr-15 02:00N 53°21' E 007°12'0 0.0
2019-Apr-15 01:30N 53°21' E 007°12'0 0.0
2019-Apr-15 01:00N 53°21' E 007°12'0 0.0
2019-Apr-15 00:30N 53°21' E 007°12'0 0.0
2019-Apr-15 00:00N 53°21' E 007°12'0 0.0
2019-Apr-14 23:30N 53°21' E 007°12'0 0.0
2019-Apr-14 23:00N 53°21' E 007°12'0 0.0
2019-Apr-14 22:30N 53°21' E 007°12'0 0.0
2019-Apr-14 22:00N 53°21' E 007°12'0 0.0
2019-Apr-14 21:30N 53°21' E 007°12'0 0.0
2019-Apr-14 21:00N 53°21' E 007°12'0 0.0
2019-Apr-14 20:30N 53°21' E 007°12'0 0.0
2019-Apr-14 20:00N 53°21' E 007°12'0 0.0
2019-Apr-14 19:30N 53°21' E 007°12'0 0.0
2019-Apr-14 19:00N 53°21' E 007°12'0 0.0
2019-Apr-14 18:30N 53°21' E 007°12'0 0.0
2019-Apr-14 18:00N 53°21' E 007°12'0 0.0
2019-Apr-14 17:30N 53°21' E 007°12'0 0.0
2019-Apr-14 17:00N 53°21' E 007°12'0 0.0
2019-Apr-14 16:30N 53°21' E 007°12'0 0.0
2019-Apr-14 16:00N 53°21' E 007°12'0 0.0
2019-Apr-14 15:30N 53°21' E 007°12'0 0.0
2019-Apr-14 15:00N 53°21' E 007°12'0 0.0
2019-Apr-14 14:30N 53°21' E 007°12'0 0.0
2019-Apr-14 14:00N 53°21' E 007°12'0 0.0
2019-Apr-14 13:30N 53°21' E 007°12'0 0.0
2019-Apr-14 13:00N 53°21' E 007°12'0 0.0
2019-Apr-14 12:30N 53°21' E 007°12'0 0.0
2019-Apr-14 12:00N 53°21' E 007°12'0 0.0
2019-Apr-14 11:30N 53°21' E 007°12'0 0.0
2019-Apr-14 11:00N 53°21' E 007°12'0 0.0
2019-Apr-14 10:30N 53°21' E 007°12'0 0.0
2019-Apr-14 10:00N 53°21' E 007°12'0 0.0
2019-Apr-14 05:28N 53°21' E 007°12'0 0.0
2019-Apr-14 04:58N 53°21' E 007°12'  
Track history (hours):
 
Tides and Currents Weather Stations Pressure Air Temp Water Temp Dewpoint Dewpoint Depression Visibility Wind Speed Wind Dir Waves Ship Positions

Roald Amundsen (Germany)

Built as a deep sea lugger in 1952. Converted and rigged as a traditional brig in 1992.

Ship's website: http://www.sailtraining.de/

Last reported at 2019-Apr-24 04:36 UTC. Time now 2019-Apr-25 12:11 UTC.
Position N 54°28' E 009°50'.

Length 50 m; beam 7.4 m; draft 4.5 m.

Type: Sailing vessel. MMSI: 211215170.

Date/timePositionNaut miles runAvg speedWind from/ knotsBaromVisibWave heightAir tempDewpointWater temp
2019-Apr-24 04:36N 54°28' E 009°50'0 0.1
2019-Apr-24 04:30N 54°28' E 009°50'0 0.0
2019-Apr-24 04:00N 54°28' E 009°50'0 0.0
2019-Apr-24 03:30N 54°28' E 009°50'0 0.0
2019-Apr-24 03:00N 54°28' E 009°50'0 0.0
2019-Apr-24 02:30N 54°28' E 009°50'0 0.0
2019-Apr-24 02:00N 54°28' E 009°50'0 0.0
2019-Apr-24 01:30N 54°28' E 009°50'0 0.0
2019-Apr-24 01:00N 54°28' E 009°50'0 0.0
2019-Apr-24 00:30N 54°28' E 009°50'0 0.0
2019-Apr-24 00:00N 54°28' E 009°50'0 0.0
2019-Apr-23 23:30N 54°28' E 009°50'0 0.0
2019-Apr-23 23:00N 54°28' E 009°50'0 0.0
2019-Apr-23 22:30N 54°28' E 009°50'0 0.0
2019-Apr-23 22:00N 54°28' E 009°50'0 0.0
2019-Apr-23 21:30N 54°28' E 009°50'0 0.0
2019-Apr-23 21:00N 54°28' E 009°50'0 0.0
2019-Apr-23 20:30N 54°28' E 009°50'0 0.0
2019-Apr-23 20:00N 54°28' E 009°50'0 0.0
2019-Apr-23 19:30N 54°28' E 009°50'0 0.0
2019-Apr-23 19:01N 54°28' E 009°50'0 0.0
2019-Apr-23 18:31N 54°28' E 009°50'0 0.0
2019-Apr-23 18:01N 54°28' E 009°50'0 0.0
2019-Apr-23 17:30N 54°28' E 009°50'0 0.0
2019-Apr-23 17:01N 54°28' E 009°50'0 0.0
2019-Apr-23 16:30N 54°28' E 009°50'0 0.0
2019-Apr-23 16:00N 54°28' E 009°50'0 0.0
2019-Apr-23 15:30N 54°28' E 009°50'0 0.0
2019-Apr-23 15:00N 54°28' E 009°50'0 0.0
2019-Apr-23 14:30N 54°28' E 009°50'0 0.0
2019-Apr-23 14:00N 54°28' E 009°50'0 0.0
2019-Apr-23 13:31N 54°28' E 009°50'0 0.0
2019-Apr-23 13:01N 54°28' E 009°50'0 0.0
2019-Apr-23 12:30N 54°28' E 009°50'0 0.0
2019-Apr-23 12:00N 54°28' E 009°50'0 0.0
2019-Apr-23 11:30N 54°28' E 009°50'0 0.0
2019-Apr-23 11:00N 54°28' E 009°50'0 0.0
2019-Apr-23 10:30N 54°28' E 009°50'0 0.0
2019-Apr-23 10:00N 54°28' E 009°50'0 0.0
2019-Apr-23 09:30N 54°28' E 009°50'0 0.0
2019-Apr-23 09:00N 54°28' E 009°50'0 0.0
2019-Apr-23 08:30N 54°28' E 009°50'0 0.0
2019-Apr-23 08:00N 54°28' E 009°50'0 0.0
2019-Apr-21 14:46N 54°28' E 009°50'0 0.4
2019-Apr-21 14:30N 54°28' E 009°51'3 6.6
2019-Apr-21 14:01N 54°29' E 009°56'4 7.7
2019-Apr-21 13:31N 54°31' E 010°02'2 4.1
2019-Apr-21 13:01N 54°31' E 010°06'1 2.5
2019-Apr-21 12:31N 54°31' E 010°08'1 2.7
2019-Apr-21 12:01N 54°30' E 010°10'1 2.7
2019-Apr-21 11:30N 54°30' E 010°12'1 2.2
2019-Apr-21 11:01N 54°29' E 010°14'1 1.8
2019-Apr-21 10:30N 54°29' E 010°15'2 4.5
2019-Apr-21 10:00N 54°27' E 010°14'3 5.9
2019-Apr-21 09:30N 54°24' E 010°12'2 4.9
2019-Apr-21 09:00N 54°22' E 010°09'0 0.2
2019-Apr-21 08:25N 54°22' E 010°09'0 0.0
2019-Apr-21 07:58N 54°22' E 010°09'0 0.0
2019-Apr-21 07:28N 54°22' E 010°09'0 0.0
2019-Apr-21 06:58N 54°22' E 010°09'0 0.0
2019-Apr-21 06:28N 54°22' E 010°09'0 0.0
2019-Apr-21 05:58N 54°22' E 010°09'0 0.0
2019-Apr-21 05:28N 54°22' E 010°09'0 0.0
2019-Apr-21 04:58N 54°22' E 010°09'0 0.0
2019-Apr-21 04:28N 54°22' E 010°09'0 0.0
2019-Apr-21 03:58N 54°22' E 010°09'0 0.0
2019-Apr-21 03:28N 54°22' E 010°09'0 0.0
2019-Apr-21 02:58N 54°22' E 010°09'0 0.0
2019-Apr-21 02:28N 54°22' E 010°09'0 0.0
2019-Apr-21 01:58N 54°22' E 010°09'0 0.0
2019-Apr-21 01:28N 54°22' E 010°09'0 0.0
2019-Apr-21 00:49N 54°22' E 010°09'0 0.0
2019-Apr-21 00:19N 54°22' E 010°09'0 0.0
2019-Apr-20 23:49N 54°22' E 010°09'0 0.0
2019-Apr-20 23:25N 54°22' E 010°09'0 0.0
2019-Apr-20 22:52N 54°22' E 010°09'0 0.0
2019-Apr-20 22:25N 54°22' E 010°09'0 0.0
2019-Apr-20 21:58N 54°22' E 010°09'0 0.0
2019-Apr-20 21:22N 54°22' E 010°09'0 0.0
2019-Apr-20 21:00N 54°22' E 010°09'0 0.8
2019-Apr-20 20:30N 54°22' E 010°08'0 0.0
2019-Apr-20 20:00N 54°22' E 010°08'0 1.0
2019-Apr-20 19:30N 54°22' E 010°08'3 6.1
2019-Apr-20 19:00N 54°22' E 010°03'4 7.2
2019-Apr-20 18:30N 54°20' E 009°57'2 3.7
2019-Apr-20 18:00N 54°21' E 009°54'4 7.7
2019-Apr-20 17:30N 54°22' E 009°47'4 7.7
2019-Apr-20 17:00N 54°19' E 009°43'4 7.2
2019-Apr-20 16:30N 54°16' E 009°38'4 7.4
2019-Apr-20 16:00N 54°13' E 009°35'4 7.6
2019-Apr-20 15:30N 54°11' E 009°30'4 7.8
2019-Apr-20 15:00N 54°10' E 009°24'6 7.2
2019-Apr-20 14:10N 54°04' E 009°19'3 7.7
2019-Apr-20 13:46N 54°01' E 009°18'2 7.7
2019-Apr-20 13:30N 53°59' E 009°17'4 7.8
2019-Apr-20 12:58N 53°56' E 009°13'3 6.9
2019-Apr-20 12:29N 53°54' E 009°09'0 0.0
2019-Apr-20 11:46N 53°54' E 009°09'0 1.2
2019-Apr-20 11:30N 53°53' E 009°09'3 3.6
2019-Apr-20 10:45N 53°52' E 009°04'2 8.2
2019-Apr-20 10:30N 53°51' E 009°01'4 8.6
2019-Apr-20 10:00N 53°50' E 008°54'4 7.6
2019-Apr-20 09:27N 53°50' E 008°47'6 6.8
2019-Apr-20 08:33N 53°55' E 008°40'0 6.7
2019-Apr-20 08:30N 53°55' E 008°40'3 6.1
2019-Apr-20 08:00N 53°57' E 008°36'3 5.8
2019-Apr-20 07:30N 53°58' E 008°31'2 4.5
2019-Apr-20 07:00N 53°59' E 008°28'2 3.8
2019-Apr-20 06:30N 53°59' E 008°24'2 3.2
2019-Apr-20 06:00N 53°59' E 008°22'2 3.2
2019-Apr-20 05:30N 53°59' E 008°19'3 5.8
2019-Apr-20 05:00N 53°60' E 008°14'3 6.0
2019-Apr-20 04:30N 53°59' E 008°09'3 5.4
2019-Apr-20 04:00N 53°58' E 008°05'3 5.2
2019-Apr-20 03:30N 53°58' E 008°00'2 4.7
2019-Apr-20 02:59N 53°57' E 007°56'2 4.4
2019-Apr-20 02:30N 53°57' E 007°53'2 4.5
2019-Apr-20 02:00N 53°56' E 007°49'3 5.1
2019-Apr-20 01:29N 53°56' E 007°45'44 6.3
2019-Apr-19 18:26N 53°41' E 006°34'5 3.4
2019-Apr-19 17:05N 53°37' E 006°33'2 7.2
2019-Apr-19 16:49N 53°36' E 006°36'5 8.4
2019-Apr-19 16:10N 53°33' E 006°43'2 9.2
2019-Apr-19 16:00N 53°32' E 006°45'4 8.6
2019-Apr-19 15:30N 53°29' E 006°50'4 8.6
2019-Apr-19 15:00N 53°26' E 006°55'5 9.8
2019-Apr-19 14:30N 53°21' E 006°59'4 7.6
2019-Apr-19 14:00N 53°20' E 007°05'4 7.2
2019-Apr-19 13:28N 53°20' E 007°11'0 0.9
2019-Apr-19 13:00N 53°21' E 007°12'1 1.3
2019-Apr-19 12:29N 53°21' E 007°12'0 0.1
2019-Apr-19 11:59N 53°21' E 007°12'0 0.0
2019-Apr-19 11:29N 53°21' E 007°12'0 0.0
2019-Apr-19 10:59N 53°21' E 007°12'0 0.0
2019-Apr-19 10:29N 53°21' E 007°12'0 0.0
2019-Apr-19 09:59N 53°21' E 007°12'0 0.0
2019-Apr-19 09:29N 53°21' E 007°12'0 0.0
2019-Apr-19 08:59N 53°21' E 007°12'0 0.0
2019-Apr-19 08:29N 53°21' E 007°12'0 0.0
2019-Apr-19 07:59N 53°21' E 007°12'0 0.0
2019-Apr-19 07:29N 53°21' E 007°12'0 0.0
2019-Apr-19 06:59N 53°21' E 007°12'0 0.0
2019-Apr-19 06:29N 53°21' E 007°12'0 0.0
2019-Apr-19 05:59N 53°21' E 007°12'0 0.0
2019-Apr-19 05:29N 53°21' E 007°12'0 0.0
2019-Apr-19 04:59N 53°21' E 007°12'0 0.0
2019-Apr-19 04:29N 53°21' E 007°12'0 0.0
2019-Apr-19 03:59N 53°21' E 007°12'0 0.0
2019-Apr-19 03:29N 53°21' E 007°12'0 0.0
2019-Apr-19 02:59N 53°21' E 007°12'0 0.0
2019-Apr-19 02:29N 53°21' E 007°12'0 0.0
2019-Apr-19 01:59N 53°21' E 007°12'0 0.0
2019-Apr-19 01:29N 53°21' E 007°12'0 0.0
2019-Apr-19 00:59N 53°21' E 007°12'0 0.0
2019-Apr-19 00:29N 53°21' E 007°12'0 0.0
2019-Apr-18 23:59N 53°21' E 007°12'0 0.0
2019-Apr-18 23:29N 53°21' E 007°12'0 0.0
2019-Apr-18 22:59N 53°21' E 007°12'0 0.0
2019-Apr-18 22:29N 53°21' E 007°12'0 0.0
2019-Apr-18 21:59N 53°21' E 007°12'0 0.0
2019-Apr-18 21:29N 53°21' E 007°12'0 0.0
2019-Apr-18 20:59N 53°21' E 007°12'0 0.0
2019-Apr-18 20:29N 53°21' E 007°12'0 0.0
2019-Apr-18 19:59N 53°21' E 007°12'0 0.0
2019-Apr-18 19:29N 53°21' E 007°12'0 0.0
2019-Apr-18 18:59N 53°21' E 007°12'0 0.0
2019-Apr-18 18:29N 53°21' E 007°12'0 0.0
2019-Apr-18 17:59N 53°21' E 007°12'0 0.0
2019-Apr-18 17:29N 53°21' E 007°12'0 0.0
2019-Apr-18 16:59N 53°21' E 007°12'0 0.0
2019-Apr-18 16:29N 53°21' E 007°12'0 0.0
2019-Apr-18 15:59N 53°21' E 007°12'0 0.0
2019-Apr-18 15:29N 53°21' E 007°12'0 0.0
2019-Apr-18 14:59N 53°21' E 007°12'0 0.0
2019-Apr-18 14:29N 53°21' E 007°12'0 0.0
2019-Apr-18 13:59N 53°21' E 007°12'0 0.0
2019-Apr-18 13:29N 53°21' E 007°12'0 0.0
2019-Apr-18 12:59N 53°21' E 007°12'0 0.0
2019-Apr-18 12:29N 53°21' E 007°12'0 0.0
2019-Apr-18 11:59N 53°21' E 007°12'0 0.0
2019-Apr-18 11:29N 53°21' E 007°12'0 0.0
2019-Apr-18 10:59N 53°21' E 007°12'0 0.0
2019-Apr-18 10:29N 53°21' E 007°12'0 0.0
2019-Apr-18 09:59N 53°21' E 007°12'0 0.0
2019-Apr-18 09:29N 53°21' E 007°12'0 0.0
2019-Apr-18 08:59N 53°21' E 007°12'0 0.0
2019-Apr-18 08:29N 53°21' E 007°12'0 0.0
2019-Apr-18 07:59N 53°21' E 007°12'0 0.0
2019-Apr-18 07:29N 53°21' E 007°12'0 0.0
2019-Apr-18 06:59N 53°21' E 007°12'0 0.0
2019-Apr-18 06:29N 53°21' E 007°12'0 0.0
2019-Apr-18 05:59N 53°21' E 007°12'0 0.0
2019-Apr-18 05:29N 53°21' E 007°12'0 0.0
2019-Apr-18 04:59N 53°21' E 007°12'0 0.0
2019-Apr-18 04:29N 53°21' E 007°12'0 0.0
2019-Apr-18 03:59N 53°21' E 007°12'0 0.0
2019-Apr-18 03:29N 53°21' E 007°12'0 0.0
2019-Apr-18 02:59N 53°21' E 007°12'0 0.0
2019-Apr-18 02:29N 53°21' E 007°12'0 0.0
2019-Apr-18 01:59N 53°21' E 007°12'0 0.0
2019-Apr-18 01:29N 53°21' E 007°12'0 0.0
2019-Apr-18 00:59N 53°21' E 007°12'0 0.0
2019-Apr-18 00:29N 53°21' E 007°12'0 0.0
2019-Apr-17 23:59N 53°21' E 007°12'0 0.0
2019-Apr-17 23:29N 53°21' E 007°12'0 0.0
2019-Apr-17 22:59N 53°21' E 007°12'0 0.0
2019-Apr-17 22:29N 53°21' E 007°12'0 0.0
2019-Apr-17 21:59N 53°21' E 007°12'0 0.0
2019-Apr-17 21:29N 53°21' E 007°12'0 0.0
2019-Apr-17 20:59N 53°21' E 007°12'0 0.0
2019-Apr-17 20:29N 53°21' E 007°12'0 0.0
2019-Apr-17 19:59N 53°21' E 007°12'0 0.0
2019-Apr-17 19:29N 53°21' E 007°12'0 0.0
2019-Apr-17 18:59N 53°21' E 007°12'0 0.0
2019-Apr-17 18:29N 53°21' E 007°12'0 0.0
2019-Apr-16 06:53N 53°21' E 007°12'0 0.0
2019-Apr-16 06:30N 53°21' E 007°12'0 0.0
2019-Apr-16 06:00N 53°21' E 007°12'0 0.0
2019-Apr-16 05:30N 53°21' E 007°12'0 0.0
2019-Apr-16 05:00N 53°21' E 007°12'0 0.0
2019-Apr-16 04:30N 53°21' E 007°12'0 0.0
2019-Apr-16 04:00N 53°21' E 007°12'0 0.0
2019-Apr-16 03:30N 53°21' E 007°12'0 0.0
2019-Apr-16 03:00N 53°21' E 007°12'0 0.0
2019-Apr-16 02:30N 53°21' E 007°12'0 0.0
2019-Apr-16 02:00N 53°21' E 007°12'0 0.0
2019-Apr-16 01:30N 53°21' E 007°12'0 0.0
2019-Apr-16 01:00N 53°21' E 007°12'0 0.0
2019-Apr-16 00:30N 53°21' E 007°12'0 0.0
2019-Apr-16 00:00N 53°21' E 007°12'0 0.0
2019-Apr-15 23:30N 53°21' E 007°12'0 0.0
2019-Apr-15 23:00N 53°21' E 007°12'0 0.0
2019-Apr-15 22:30N 53°21' E 007°12'0 0.0
2019-Apr-15 22:00N 53°21' E 007°12'0 0.0
2019-Apr-15 21:30N 53°21' E 007°12'0 0.0
2019-Apr-15 21:00N 53°21' E 007°12'0 0.0
2019-Apr-15 20:30N 53°21' E 007°12'0 0.0
2019-Apr-15 20:00N 53°21' E 007°12'0 0.0
2019-Apr-15 19:30N 53°21' E 007°12'0 0.0
2019-Apr-15 19:00N 53°21' E 007°12'0 0.0
2019-Apr-15 18:30N 53°21' E 007°12'0 0.0
2019-Apr-15 18:00N 53°21' E 007°12'0 0.0
2019-Apr-15 17:30N 53°21' E 007°12'0 0.0
2019-Apr-15 17:00N 53°21' E 007°12'0 0.0
2019-Apr-15 16:30N 53°21' E 007°12'0 0.0
2019-Apr-15 16:00N 53°21' E 007°12'0 0.0
2019-Apr-15 15:30N 53°21' E 007°12'0 0.0
2019-Apr-15 15:00N 53°21' E 007°12'0 0.0
2019-Apr-15 14:30N 53°21' E 007°12'0 0.0
2019-Apr-15 14:00N 53°21' E 007°12'0 0.0
2019-Apr-15 13:30N 53°21' E 007°12'0 0.0
2019-Apr-15 13:00N 53°21' E 007°12'0 0.0
2019-Apr-15 12:30N 53°21' E 007°12'0 0.0
2019-Apr-15 12:00N 53°21' E 007°12'0 0.0
2019-Apr-15 11:30N 53°21' E 007°12'0 0.0
2019-Apr-15 11:00N 53°21' E 007°12'0 0.0
2019-Apr-15 10:30N 53°21' E 007°12'0 0.0
2019-Apr-15 10:00N 53°21' E 007°12'0 0.0
2019-Apr-15 09:30N 53°21' E 007°12'0 0.0
2019-Apr-15 09:00N 53°21' E 007°12'0 0.0
2019-Apr-15 08:30N 53°21' E 007°12'0 0.0
2019-Apr-15 08:00N 53°21' E 007°12'0 0.0
2019-Apr-15 07:30N 53°21' E 007°12'0 0.0
2019-Apr-15 07:00N 53°21' E 007°12'0 0.0
2019-Apr-15 06:30N 53°21' E 007°12'0 0.0
2019-Apr-15 06:00N 53°21' E 007°12'0 0.0
2019-Apr-15 05:30N 53°21' E 007°12'0 0.0
2019-Apr-15 05:00N 53°21' E 007°12'0 0.0
2019-Apr-15 04:30N 53°21' E 007°12'0 0.0
2019-Apr-15 04:00N 53°21' E 007°12'0 0.0
2019-Apr-15 03:30N 53°21' E 007°12'0 0.0
2019-Apr-15 03:00N 53°21' E 007°12'0 0.0
2019-Apr-15 02:30N 53°21' E 007°12'0 0.0
2019-Apr-15 02:00N 53°21' E 007°12'0 0.0
2019-Apr-15 01:30N 53°21' E 007°12'0 0.0
2019-Apr-15 01:00N 53°21' E 007°12'0 0.0
2019-Apr-15 00:30N 53°21' E 007°12'0 0.0
2019-Apr-15 00:00N 53°21' E 007°12'0 0.0
2019-Apr-14 23:30N 53°21' E 007°12'0 0.0
2019-Apr-14 23:00N 53°21' E 007°12'0 0.0
2019-Apr-14 22:30N 53°21' E 007°12'0 0.0
2019-Apr-14 22:00N 53°21' E 007°12'0 0.0
2019-Apr-14 21:30N 53°21' E 007°12'0 0.0
2019-Apr-14 21:00N 53°21' E 007°12'0 0.0
2019-Apr-14 20:30N 53°21' E 007°12'0 0.0
2019-Apr-14 20:00N 53°21' E 007°12'0 0.0
2019-Apr-14 19:30N 53°21' E 007°12'0 0.0
2019-Apr-14 19:00N 53°21' E 007°12'0 0.0
2019-Apr-14 18:30N 53°21' E 007°12'0 0.0
2019-Apr-14 18:00N 53°21' E 007°12'0 0.0
2019-Apr-14 17:30N 53°21' E 007°12'0 0.0
2019-Apr-14 17:00N 53°21' E 007°12'0 0.0
2019-Apr-14 16:30N 53°21' E 007°12'0 0.0
2019-Apr-14 16:00N 53°21' E 007°12'0 0.0
2019-Apr-14 15:30N 53°21' E 007°12'0 0.0
2019-Apr-14 15:00N 53°21' E 007°12'0 0.0
2019-Apr-14 14:30N 53°21' E 007°12'0 0.0
2019-Apr-14 14:00N 53°21' E 007°12'0 0.0
2019-Apr-14 13:30N 53°21' E 007°12'0 0.0
2019-Apr-14 13:00N 53°21' E 007°12'0 0.0
2019-Apr-14 12:30N 53°21' E 007°12'0 0.0
2019-Apr-14 12:00N 53°21' E 007°12'0 0.0
2019-Apr-14 11:30N 53°21' E 007°12'0 0.0
2019-Apr-14 11:00N 53°21' E 007°12'0 0.0
2019-Apr-14 10:30N 53°21' E 007°12'0 0.0
2019-Apr-14 10:00N 53°21' E 007°12'0 0.0
2019-Apr-14 05:28N 53°21' E 007°12'0 0.0
2019-Apr-14 04:58N 53°21' E 007°12'  

Dump ship's entire track history